Aérodrome :
LOGIN :

S'inscrire | Disclaimer

   EN    FR    IT 

 










Légende :    VFR   VFR Marginal   IFR   IFR Intensif   IFR Très Intensif
Visi : 
Plafond : 
>= 8 km
>= 3000ft
5 à 8 km
1000 à 3000 ft
1500m à 5 km
500 à 1000 ft
800 à 1500m
200 à 500 ft
< 800m
< 200 ft
Symboles :   Orages  Brouillard  Fortes neiges  Fortes précipitations  Vent > 20 kt
SIGMETs :   Divers  Orages  Givrage  Turbulence  Onde Orograph.  Cendres Volcan.







- Altitude de l'aérodrome : 302 ft
- Code IATA : MAH


LEMH - Menorca

DERNIER METAR :
  • 160430Z AUTO 01010KT CAVOK 06/06 Q1028

METARs EXPIRÉS :
  • 160400Z AUTO 02008KT CAVOK 05/04 Q1028
  • 160330Z AUTO 01008KT CAVOK 06/05 Q1028
  • 160300Z AUTO 01007KT CAVOK 06/05 Q1029
  • 160230Z AUTO 01007KT CAVOK 06/06 Q1029
  • 160200Z AUTO 04008KT CAVOK 08/07 Q1029

TAF TAF LEMH
Valide du 16 à 03h jusqu'au 17 à 03h UTC


160200Z 1603/1703 05006KT 9999 FEW020 TX16/1612Z TN04/1607Z
BECMG 1612/1615 12008KT
Pas de NOTAMs connus pour ce terrain.



MET'MAP, la Météo Aéronautique d'un coup d'oeil ! - Copyright ORBIFLY Décembre 2007 - Disclaimer

ORBIFLY MET'MAP TEAM :

Programmation & Développement : Alexandra Zaïnal
Conception & Développement : Baudouin d'Aumeries
Co-Programmation & Développement : Marc-Olivier Méhu
Soutien technique & logistique : Manuel Goepfert

Contact : metmap@orbifly.com




SOURCES & CREDITS :

   NOAA